Ralston, Wyoming
Current Conditions -  °F | °C
As of 12:15 AM on Sunday 26 Oct 2014 (Local Time) from KPOY Reporting Station
Clear Clear  
Wind Chill: 12°   Ceiling: Unl
Heat Index: 12°   Visibility: 10mi
Dew Point: -4°   Wind: 6mph
Humidity: 33%   Direction: 230°SW
Pressure: 29.73"   Gusts: NA
Location:  44.72°N, 108.87°W
Report Text: KPOY 260615Z AUTO 23005KT 10SM CLR 12/M04 A2973 RMK AO2
Loading
Personal Weather Stations






























Interactive Weather Map
Tropical Storm Tracking
New forecast layout! Learn more

10-Day Weather Forecast

Advertisements
Track Severe Weather on mobile